createdAt,value
2023-10-10T00:01:56.289Z,36.92
2023-10-10T00:04:41.264Z,37.21
2023-10-10T00:07:26.233Z,37.28
2023-10-10T00:10:11.278Z,36.90
2023-10-10T00:12:56.438Z,36.78
2023-10-10T00:15:41.507Z,37.03
2023-10-10T00:18:26.572Z,36.84
2023-10-10T00:21:11.651Z,36.93
2023-10-10T00:23:56.824Z,36.85
2023-10-10T00:26:41.805Z,36.81
2023-10-10T00:32:21.908Z,36.69
2023-10-10T00:35:06.549Z,37.96
2023-10-10T00:37:51.612Z,38.21
2023-10-10T00:40:36.586Z,37.79
2023-10-10T00:43:21.520Z,37.65
2023-10-10T00:46:06.505Z,37.55
2023-10-10T00:48:51.609Z,37.78
2023-10-10T00:51:36.620Z,37.80
2023-10-10T00:54:21.537Z,38.06
2023-10-10T00:57:06.499Z,38.29
2023-10-10T00:59:51.491Z,38.19
2023-10-10T01:02:36.671Z,37.71
2023-10-10T01:05:21.636Z,38.06
2023-10-10T01:08:06.514Z,38.58
2023-10-10T01:10:51.474Z,38.25
2023-10-10T01:13:36.352Z,39.07
2023-10-10T01:16:21.194Z,39.34
2023-10-10T01:19:06.126Z,38.95
2023-10-10T01:21:51.263Z,38.70
2023-10-10T01:24:36.127Z,38.75
2023-10-10T01:27:21.243Z,38.62
2023-10-10T01:30:05.875Z,38.48
2023-10-10T01:32:51.050Z,38.60
2023-10-10T01:35:36.049Z,39.58
2023-10-10T01:38:21.236Z,39.44
2023-10-10T01:41:06.366Z,39.71
2023-10-10T01:43:51.333Z,38.51
2023-10-10T01:46:36.491Z,38.17
2023-10-10T01:49:21.321Z,38.02
2023-10-10T01:52:06.381Z,37.97
2023-10-10T01:54:51.287Z,37.89
2023-10-10T01:57:36.308Z,38.87
2023-10-10T02:00:21.247Z,38.45
2023-10-10T02:03:06.236Z,39.01
2023-10-10T02:05:51.113Z,38.02
2023-10-10T02:08:35.953Z,37.88
2023-10-10T02:11:20.976Z,37.38
2023-10-10T02:14:05.855Z,37.17
2023-10-10T02:16:50.782Z,37.42
2023-10-10T02:19:38.347Z,37.58
2023-10-10T02:22:23.771Z,37.96
2023-10-10T02:25:08.851Z,38.59
2023-10-10T02:27:53.736Z,38.37
2023-10-10T02:30:38.790Z,38.22
2023-10-10T02:33:23.717Z,38.17
2023-10-10T02:36:08.743Z,37.91
2023-10-10T02:38:53.752Z,38.15
2023-10-10T02:41:38.786Z,38.40
2023-10-10T02:44:23.917Z,38.47
2023-10-10T02:47:08.853Z,39.30
2023-10-10T02:49:53.831Z,39.16
2023-10-10T02:52:38.763Z,39.75
2023-10-10T02:55:23.996Z,39.66
2023-10-10T02:58:09.346Z,39.56
2023-10-10T03:00:54.358Z,39.76
2023-10-10T03:03:39.650Z,39.35
2023-10-10T03:06:24.422Z,39.09
2023-10-10T03:09:09.466Z,38.71
2023-10-10T03:11:54.285Z,38.82
2023-10-10T03:14:39.373Z,38.87
2023-10-10T03:17:24.227Z,39.16
2023-10-10T03:20:09.068Z,38.40
2023-10-10T03:22:54.136Z,37.63
2023-10-10T03:25:39.050Z,37.94
2023-10-10T03:28:24.096Z,37.64
2023-10-10T03:31:08.993Z,38.72
2023-10-10T03:33:54.028Z,38.31
2023-10-10T03:36:38.990Z,38.87
2023-10-10T03:39:24.018Z,38.40
2023-10-10T03:42:08.934Z,38.68
2023-10-10T03:44:53.980Z,38.86
2023-10-10T03:47:39.107Z,38.61
2023-10-10T03:50:23.976Z,38.88
2023-10-10T03:53:09.045Z,39.12
2023-10-10T03:55:53.967Z,38.73
2023-10-10T03:58:38.951Z,38.04
2023-10-10T04:01:23.967Z,37.98
2023-10-10T04:04:08.973Z,37.93
2023-10-10T04:06:53.892Z,37.67
2023-10-10T04:09:39.004Z,37.61
2023-10-10T04:12:24.085Z,37.70
2023-10-10T04:15:09.112Z,37.68
2023-10-10T04:17:54.120Z,38.24
2023-10-10T04:20:39.024Z,37.85
2023-10-10T04:23:24.039Z,37.43
2023-10-10T04:26:08.910Z,38.01
2023-10-10T04:28:53.880Z,37.70
2023-10-10T04:31:38.994Z,38.03
2023-10-10T04:34:23.878Z,38.65
2023-10-10T04:37:08.984Z,38.31
2023-10-10T04:39:53.821Z,39.19
2023-10-10T04:42:38.992Z,39.16
2023-10-10T04:45:23.872Z,38.71
2023-10-10T04:48:08.992Z,38.48
2023-10-10T04:50:53.939Z,38.89
2023-10-10T04:53:38.931Z,38.94
2023-10-10T04:56:23.939Z,39.32
2023-10-10T04:59:08.824Z,39.50
2023-10-10T05:01:53.979Z,39.13
2023-10-10T05:04:38.968Z,39.74
2023-10-10T05:07:23.977Z,39.48
2023-10-10T05:10:09.282Z,39.34
2023-10-10T05:12:54.362Z,38.96
2023-10-10T05:15:39.359Z,39.16
2023-10-10T05:18:24.467Z,38.45
2023-10-10T05:21:09.493Z,38.28
2023-10-10T05:23:54.402Z,38.14
2023-10-10T05:26:39.392Z,37.73
2023-10-10T05:29:24.242Z,37.93
2023-10-10T05:32:09.274Z,37.77
2023-10-10T05:34:55.281Z,37.94
2023-10-10T05:37:41.263Z,38.37
2023-10-10T05:40:26.377Z,38.83
2023-10-10T05:43:11.370Z,38.43
2023-10-10T05:45:56.542Z,38.48
2023-10-10T05:48:41.430Z,38.72
2023-10-10T05:51:26.544Z,38.69
2023-10-10T05:54:11.574Z,38.20
2023-10-10T05:56:56.467Z,38.31
2023-10-10T05:59:41.567Z,38.67
2023-10-10T06:02:26.697Z,38.10
2023-10-10T06:05:11.426Z,37.81
2023-10-10T06:07:56.088Z,37.96
2023-10-10T06:10:41.083Z,38.10
2023-10-10T06:13:26.122Z,37.60
2023-10-10T06:16:11.149Z,38.00
2023-10-10T06:18:56.246Z,39.00
2023-10-10T06:21:41.208Z,40.17
2023-10-10T06:24:26.305Z,38.99
2023-10-10T06:27:11.342Z,39.03
2023-10-10T06:29:56.380Z,39.29
2023-10-10T06:32:41.565Z,39.73
2023-10-10T06:35:26.786Z,40.13
2023-10-10T06:38:11.742Z,40.55
2023-10-10T06:40:56.770Z,39.95
2023-10-10T06:43:41.796Z,40.50
2023-10-10T06:46:26.774Z,40.42
2023-10-10T06:49:11.907Z,41.20
2023-10-10T06:51:56.980Z,40.95
2023-10-10T06:54:41.985Z,40.96
2023-10-10T06:57:26.983Z,40.73
2023-10-10T07:00:12.061Z,40.80
2023-10-10T07:02:57.319Z,40.92
2023-10-10T07:05:42.226Z,40.98
2023-10-10T07:08:27.299Z,39.30
2023-10-10T07:11:12.292Z,38.07
2023-10-10T07:13:57.339Z,36.25
2023-10-10T07:16:42.245Z,36.14
2023-10-10T07:19:27.249Z,37.65
2023-10-10T07:22:12.108Z,37.58
2023-10-10T07:24:57.274Z,35.73
2023-10-10T07:27:42.370Z,35.59
2023-10-10T07:30:27.332Z,34.88
2023-10-10T07:33:12.338Z,34.87
2023-10-10T07:35:57.324Z,35.75
2023-10-10T07:38:42.462Z,34.84
2023-10-10T07:41:27.414Z,34.00
2023-10-10T07:44:12.376Z,33.75
2023-10-10T07:46:57.480Z,33.31
2023-10-10T07:49:42.382Z,33.30
2023-10-10T07:52:27.500Z,33.59
2023-10-10T07:55:12.613Z,33.28
2023-10-10T07:57:57.437Z,33.08
2023-10-10T08:00:42.446Z,33.03
2023-10-10T08:03:27.507Z,33.71
2023-10-10T08:06:12.487Z,34.50
2023-10-10T08:08:57.505Z,33.91
2023-10-10T08:11:42.755Z,33.41
2023-10-10T08:14:27.745Z,33.36
2023-10-10T08:17:12.805Z,32.84
2023-10-10T08:19:57.620Z,32.79
2023-10-10T08:22:42.732Z,31.91
2023-10-10T08:25:27.541Z,32.68
2023-10-10T08:28:12.473Z,32.35
2023-10-10T08:30:57.458Z,32.08
2023-10-10T08:33:42.564Z,32.95
2023-10-10T08:36:27.775Z,32.78
2023-10-10T08:39:12.696Z,32.10
2023-10-10T08:41:57.744Z,31.99
2023-10-10T08:44:42.782Z,31.88
2023-10-10T08:47:27.795Z,31.50
2023-10-10T08:50:12.817Z,31.50
2023-10-10T08:52:57.875Z,31.08
2023-10-10T08:55:43.034Z,32.71
2023-10-10T08:58:27.932Z,32.29
2023-10-10T09:01:12.864Z,31.99
2023-10-10T09:03:57.922Z,33.23
2023-10-10T09:06:42.879Z,33.34
2023-10-10T09:09:27.878Z,32.92
2023-10-10T09:12:12.608Z,31.79
2023-10-10T09:14:57.710Z,31.42
2023-10-10T09:17:42.824Z,31.22
2023-10-10T09:20:27.841Z,31.26
2023-10-10T09:23:13.103Z,30.82
2023-10-10T09:25:58.370Z,31.53
2023-10-10T09:28:43.446Z,30.81
2023-10-10T09:31:28.375Z,30.91
2023-10-10T09:34:13.552Z,30.64
2023-10-10T09:36:58.579Z,30.38
2023-10-10T09:39:43.610Z,30.55
2023-10-10T09:42:28.521Z,31.17
2023-10-10T09:45:13.485Z,30.88
2023-10-10T09:47:58.719Z,30.88
2023-10-10T09:50:43.439Z,31.11
2023-10-10T09:53:28.592Z,30.62
2023-10-10T09:56:13.668Z,30.51
2023-10-10T09:58:58.650Z,31.13
2023-10-10T10:01:43.616Z,30.38
2023-10-10T10:04:28.658Z,30.89
2023-10-10T10:07:13.693Z,30.37
2023-10-10T10:09:58.803Z,29.75
2023-10-10T10:12:43.695Z,29.15
2023-10-10T10:15:28.813Z,29.52
2023-10-10T10:18:13.963Z,30.19
2023-10-10T10:20:58.733Z,29.89
2023-10-10T10:23:44.008Z,30.14
2023-10-10T10:26:28.913Z,29.67
2023-10-10T10:29:13.883Z,30.27
2023-10-10T10:31:59.237Z,29.23
2023-10-10T10:34:44.437Z,29.98
2023-10-10T10:37:29.330Z,29.93
2023-10-10T10:40:14.264Z,29.22
2023-10-10T10:42:59.438Z,29.71
2023-10-10T10:45:44.491Z,29.36
2023-10-10T10:48:29.562Z,29.31
2023-10-10T10:51:14.320Z,29.42
2023-10-10T10:53:59.190Z,29.33
2023-10-10T10:56:47.756Z,29.62
2023-10-10T10:59:36.173Z,29.81
2023-10-10T11:02:21.286Z,29.73
2023-10-10T11:05:06.339Z,29.58
2023-10-10T11:07:51.370Z,30.14
2023-10-10T11:10:36.474Z,28.81
2023-10-10T11:13:21.396Z,29.28
2023-10-10T11:16:06.438Z,29.04
2023-10-10T11:18:51.409Z,29.39
2023-10-10T11:21:36.425Z,28.81
2023-10-10T11:24:21.398Z,28.84
2023-10-10T11:27:06.516Z,27.82
2023-10-10T11:29:51.551Z,27.07
2023-10-10T11:32:36.526Z,26.73
2023-10-10T11:35:21.623Z,27.01
2023-10-10T11:38:06.684Z,26.75
2023-10-10T11:40:51.679Z,26.33
2023-10-10T11:43:36.652Z,26.74
2023-10-10T11:46:21.691Z,27.10
2023-10-10T11:49:06.686Z,27.04
2023-10-10T11:51:51.670Z,26.65
2023-10-10T11:54:36.899Z,26.34
2023-10-10T11:57:21.980Z,26.32
2023-10-10T12:00:20.273Z,26.44
2023-10-10T12:03:11.850Z,27.21
2023-10-10T12:05:56.724Z,26.70
2023-10-10T12:08:41.860Z,26.67
2023-10-10T12:11:26.910Z,26.46
2023-10-10T12:14:11.971Z,26.87
2023-10-10T12:16:56.924Z,26.66
2023-10-10T12:19:41.952Z,26.91
2023-10-10T12:22:27.058Z,26.48
2023-10-10T12:25:12.086Z,26.87
2023-10-10T12:27:57.331Z,26.95
2023-10-10T12:30:42.262Z,26.44
2023-10-10T12:33:27.540Z,26.62
2023-10-10T12:36:12.345Z,26.39
2023-10-10T12:38:57.425Z,26.75
2023-10-10T12:41:42.469Z,26.04
2023-10-10T12:44:27.541Z,25.79
2023-10-10T12:47:14.931Z,26.18
2023-10-10T12:50:00.499Z,26.05
2023-10-10T12:52:45.745Z,26.94
2023-10-10T12:55:30.844Z,25.95
2023-10-10T12:58:15.868Z,26.71
2023-10-10T13:01:01.039Z,27.02
2023-10-10T13:03:46.072Z,26.47
2023-10-10T13:06:31.064Z,26.74
2023-10-10T13:09:16.069Z,26.67
2023-10-10T13:12:01.088Z,26.28
2023-10-10T13:14:46.098Z,26.51
2023-10-10T13:17:31.432Z,26.98
2023-10-10T13:20:16.617Z,27.17
2023-10-10T13:23:01.513Z,27.06
2023-10-10T13:25:46.697Z,27.20
2023-10-10T13:28:31.653Z,27.35
2023-10-10T13:31:16.606Z,27.35
2023-10-10T13:34:01.542Z,27.48
2023-10-10T13:36:46.608Z,28.24
2023-10-10T13:39:31.553Z,29.12
2023-10-10T13:42:16.589Z,28.34
2023-10-10T13:45:01.781Z,28.00
2023-10-10T13:47:46.887Z,27.80
2023-10-10T13:50:32.038Z,27.96
2023-10-10T13:53:17.069Z,27.13
2023-10-10T13:56:01.947Z,27.17
2023-10-10T13:58:46.749Z,27.40
2023-10-10T14:01:31.804Z,27.37
2023-10-10T14:04:17.696Z,28.06
2023-10-10T14:07:02.912Z,28.05
2023-10-10T14:10:01.727Z,28.69
2023-10-10T14:12:47.557Z,28.82
2023-10-10T14:15:32.495Z,29.30
2023-10-10T14:18:17.649Z,30.06
2023-10-10T14:21:02.696Z,31.25
2023-10-10T14:23:47.596Z,31.31
2023-10-10T14:26:32.587Z,30.32
2023-10-10T14:29:18.304Z,30.38
2023-10-10T14:32:04.925Z,30.27
2023-10-10T14:34:49.810Z,30.51
2023-10-10T14:37:49.974Z,30.80
2023-10-10T14:40:39.887Z,31.71
2023-10-10T14:43:24.913Z,30.92
2023-10-10T14:46:09.932Z,30.19
2023-10-10T14:48:54.987Z,31.71
2023-10-10T14:51:39.990Z,31.94
2023-10-10T14:54:25.058Z,31.51
2023-10-10T14:57:10.084Z,32.23
2023-10-10T14:59:55.074Z,32.09
2023-10-10T15:02:40.126Z,32.12
2023-10-10T15:05:25.007Z,32.55
2023-10-10T15:08:09.874Z,32.52
2023-10-10T15:10:54.869Z,32.18
2023-10-10T15:13:39.962Z,33.26
2023-10-10T15:16:25.125Z,33.90
2023-10-10T15:19:10.186Z,34.73
2023-10-10T15:21:55.358Z,35.60
2023-10-10T15:24:42.570Z,33.57
2023-10-10T15:27:28.236Z,33.89
2023-10-10T15:30:13.331Z,34.79
2023-10-10T15:32:58.453Z,34.54
2023-10-10T15:35:43.734Z,34.20
2023-10-10T15:38:28.697Z,35.08
2023-10-10T15:41:13.698Z,36.17
2023-10-10T15:43:58.560Z,35.89
2023-10-10T15:46:44.336Z,34.92
2023-10-10T15:49:36.516Z,34.50
2023-10-10T15:52:22.427Z,34.64
2023-10-10T15:55:07.435Z,34.68
2023-10-10T15:57:52.500Z,34.72
2023-10-10T16:00:37.455Z,34.99
2023-10-10T16:03:22.673Z,34.60
2023-10-10T16:06:07.639Z,34.82
2023-10-10T16:08:52.714Z,34.97
2023-10-10T16:11:37.909Z,34.75
2023-10-10T16:14:22.965Z,34.68
2023-10-10T16:17:07.773Z,34.54
2023-10-10T16:19:52.792Z,34.39
2023-10-10T16:22:40.073Z,34.50
2023-10-10T16:25:27.059Z,34.51
2023-10-10T16:28:11.969Z,35.07
2023-10-10T16:30:57.071Z,35.42
2023-10-10T16:33:42.122Z,35.43
2023-10-10T16:36:27.197Z,35.91
2023-10-10T16:39:12.381Z,36.05
2023-10-10T16:41:57.265Z,36.47
2023-10-10T16:44:42.383Z,36.87
2023-10-10T16:47:27.323Z,36.56
2023-10-10T16:50:12.460Z,36.29
2023-10-10T16:53:10.032Z,36.28
2023-10-10T16:55:56.024Z,36.02
2023-10-10T16:58:40.956Z,35.68
2023-10-10T17:01:26.042Z,35.85
2023-10-10T17:04:11.077Z,36.04
2023-10-10T17:06:56.023Z,35.97
2023-10-10T17:09:41.057Z,35.94
2023-10-10T17:12:26.066Z,35.43
2023-10-10T17:15:11.203Z,35.34
2023-10-10T17:17:56.169Z,35.34
2023-10-10T17:20:41.028Z,35.31
2023-10-10T17:23:25.998Z,35.52
2023-10-10T17:26:10.905Z,36.29
2023-10-10T17:28:55.931Z,35.98
2023-10-10T17:31:40.902Z,36.57
2023-10-10T17:34:25.866Z,36.45
2023-10-10T17:37:10.924Z,36.21
2023-10-10T17:39:56.051Z,35.59
2023-10-10T17:42:40.964Z,35.47
2023-10-10T17:45:25.933Z,35.49
2023-10-10T17:48:10.996Z,35.59
2023-10-10T17:50:55.738Z,35.75
2023-10-10T17:53:40.608Z,35.97
2023-10-10T17:56:25.696Z,36.20
2023-10-10T17:59:10.492Z,36.32
2023-10-10T18:01:55.395Z,36.56
2023-10-10T18:04:40.469Z,38.24
2023-10-10T18:07:25.565Z,37.80
2023-10-10T18:10:10.249Z,38.12
2023-10-10T18:12:55.248Z,37.81
2023-10-10T18:15:40.180Z,37.54
2023-10-10T18:18:25.357Z,37.78
2023-10-10T18:21:10.247Z,38.01
2023-10-10T18:23:55.329Z,38.10
2023-10-10T18:26:40.169Z,37.66
2023-10-10T18:29:25.180Z,38.27
2023-10-10T18:32:10.024Z,38.46
2023-10-10T18:34:54.896Z,38.07
2023-10-10T18:37:39.920Z,37.06
2023-10-10T18:40:24.904Z,37.00
2023-10-10T18:43:10.016Z,36.73
2023-10-10T18:45:55.014Z,36.46
2023-10-10T18:48:40.158Z,37.06
2023-10-10T18:51:25.029Z,36.78
2023-10-10T18:54:10.174Z,36.79
2023-10-10T18:56:55.086Z,36.77
2023-10-10T18:59:40.102Z,36.33
2023-10-10T19:02:25.219Z,36.22
2023-10-10T19:05:10.213Z,36.38
2023-10-10T19:07:55.252Z,36.76
2023-10-10T19:10:39.881Z,36.42
2023-10-10T19:13:24.958Z,36.61
2023-10-10T19:16:09.927Z,36.62
2023-10-10T19:18:54.991Z,37.03
2023-10-10T19:21:40.003Z,36.98
2023-10-10T19:24:25.119Z,37.49
2023-10-10T19:27:10.225Z,37.47
2023-10-10T19:29:55.084Z,37.46
2023-10-10T19:32:41.223Z,37.79
2023-10-10T19:35:26.080Z,38.10
2023-10-10T19:38:10.766Z,38.33
2023-10-10T19:40:55.693Z,38.44
2023-10-10T19:43:40.747Z,38.39
2023-10-10T19:46:25.974Z,38.66
2023-10-10T19:49:11.176Z,38.77
2023-10-10T19:51:56.423Z,39.14
2023-10-10T19:54:41.429Z,39.06
2023-10-10T19:57:26.747Z,39.10
2023-10-10T20:00:11.776Z,39.00
2023-10-10T20:02:56.883Z,38.88
2023-10-10T20:05:42.497Z,38.72
2023-10-10T20:08:27.351Z,40.06
2023-10-10T20:11:12.520Z,40.20
2023-10-10T20:13:57.444Z,39.76
2023-10-10T20:16:42.616Z,39.63
2023-10-10T20:19:27.540Z,40.12
2023-10-10T20:22:12.453Z,41.06
2023-10-10T20:24:57.330Z,40.75
2023-10-10T20:27:42.363Z,40.13
2023-10-10T20:30:27.436Z,40.73
2023-10-10T20:33:12.487Z,40.21
2023-10-10T20:35:57.518Z,40.66
2023-10-10T20:38:42.475Z,40.57
2023-10-10T20:41:27.345Z,39.87
2023-10-10T20:44:12.375Z,39.85
2023-10-10T20:46:57.437Z,39.77
2023-10-10T20:49:42.398Z,39.39
2023-10-10T20:52:27.482Z,39.41
2023-10-10T20:55:12.626Z,39.59
2023-10-10T20:57:57.443Z,39.70
2023-10-10T21:00:42.520Z,39.61
2023-10-10T21:03:27.525Z,39.56
2023-10-10T21:06:12.889Z,39.62
2023-10-10T21:08:58.300Z,39.56
2023-10-10T21:11:43.181Z,39.44
2023-10-10T21:14:28.117Z,40.14
2023-10-10T21:17:13.117Z,39.72
2023-10-10T21:19:58.169Z,39.79
2023-10-10T21:22:43.157Z,40.26
2023-10-10T21:25:28.141Z,40.18
2023-10-10T21:28:13.076Z,39.98
2023-10-10T21:30:58.056Z,39.97
2023-10-10T21:33:43.191Z,39.68
2023-10-10T21:36:28.009Z,39.55
2023-10-10T21:39:13.003Z,39.51
2023-10-10T21:41:57.854Z,39.56
2023-10-10T21:44:42.846Z,39.16
2023-10-10T21:47:27.815Z,39.68
2023-10-10T21:50:12.864Z,39.82
2023-10-10T21:52:57.823Z,40.22
2023-10-10T21:55:42.791Z,39.99
2023-10-10T21:58:27.689Z,39.70
2023-10-10T22:01:12.740Z,39.75
2023-10-10T22:03:57.938Z,39.55
2023-10-10T22:06:42.703Z,39.82
2023-10-10T22:09:27.697Z,39.64
2023-10-10T22:12:12.646Z,39.49
2023-10-10T22:14:57.622Z,39.88
2023-10-10T22:17:42.534Z,39.57
2023-10-10T22:20:27.449Z,39.25
2023-10-10T22:23:12.660Z,39.32
2023-10-10T22:25:57.621Z,39.17
2023-10-10T22:28:42.699Z,39.47
2023-10-10T22:31:27.660Z,39.16
2023-10-10T22:34:12.612Z,39.21
2023-10-10T22:37:07.867Z,39.18
2023-10-10T22:39:53.486Z,39.75
2023-10-10T22:42:38.466Z,39.64
2023-10-10T22:45:23.368Z,39.47
2023-10-10T22:48:08.276Z,39.55
2023-10-10T22:50:53.113Z,39.54
2023-10-10T22:53:38.061Z,39.41
2023-10-10T22:56:22.908Z,39.22
2023-10-10T22:59:08.002Z,38.98
2023-10-10T23:01:52.965Z,39.01
2023-10-10T23:04:38.163Z,39.21
2023-10-10T23:07:23.065Z,39.06
2023-10-10T23:10:07.909Z,38.36
2023-10-10T23:12:52.873Z,38.45
2023-10-10T23:15:38.687Z,39.44
2023-10-10T23:18:24.019Z,39.38
2023-10-10T23:21:08.974Z,37.74
2023-10-10T23:23:54.046Z,36.91
2023-10-10T23:26:39.013Z,37.91
2023-10-10T23:29:24.036Z,38.16
2023-10-10T23:32:09.017Z,37.35
2023-10-10T23:34:54.032Z,37.68
2023-10-10T23:37:39.029Z,37.43
2023-10-10T23:40:23.994Z,37.54
2023-10-10T23:43:08.963Z,38.22
2023-10-10T23:45:53.961Z,37.47
2023-10-10T23:48:39.081Z,37.45
2023-10-10T23:51:23.956Z,37.73
2023-10-10T23:54:09.131Z,37.67
2023-10-10T23:56:53.984Z,38.12
2023-10-10T23:59:38.847Z,38.65
